Airfield :
LOGIN :

Register | Disclaimer

   EN    FR    IT 

 










Legend :    VFR   Marginal VFR   IFR   Intensive IFR   Very Intensive IFR
Visi :
Ceiling :
>= 8 km
>= 3000ft
5 to 8 km
1000 to 3000 ft
1500m to 5 km
500 to 1000 ft
800 to 1500m
200 to 500 ft
< 800m
< 200 ft
Symbols :   Thunderstorms  Fog  Heavy snow  Heavy precipitations  Wind > 20 kt
SIGMETs :     Misc.  Thunderstorms  Icing  Turbulence  Mountain Waves  Volcanic Ashes






- Airport Elevation : 49 ft
- IATA code : SEN


EGMC - Southend

CURRENT METAR :
  • 040950Z 23011KT 9999 SCT014 BKN017 04/03 Q0976

EXPIRED METARs :
  • 040920Z 23011KT 9999 BKN013 03/02 Q0975
  • 040850Z 24011KT 9999 BKN014 03/02 Q0975
  • 040820Z 24014KT 9999 BKN016 03/02 Q0974
  • 040750Z 24012KT 9000 VCSH SCT010 BKN012 03/02 Q0974
  • 040720Z 26010KT 8000 -RASN SCT008 BKN013 02/02 Q0973

TAF TAF EGMC
Valid from the 04 at 09:00 until the 04 at 18:00 UTC


040802Z 0409/0418 26012KT 9999 FEW010 BKN020
TEMPO 0409/0413 BKN010
PROB30
TEMPO 0409/0413 7000 RA
BECMG 0412/0415 20010KT



MET'MAP, your aeronautical weather chart ! - Copyright ORBIFLY December 2007 - Disclaimer

ORBIFLY MET'MAP TEAM :

Programming & Development : Alexandra Zaïnal
Concept & original design : Baudouin d'Aumeries
Assistance for programming : Marc-Olivier Méhu
Technical & hardware support : Manuel Goepfert

Contact : metmap@orbifly.com




SOURCES & CREDITS :

   NOAA